Time;durP1;ratioP1;P1;durP2;ratioP2;P2;SDS_P1;SDS_P2;PMS_P1;PMS_P2;Temp;Humidity;BMP_temperature;BMP_pressure;BME280_temperature;BME280_humidity;BME280_pressure;Samples;Min_cycle;Max_cycle;Signal;HPM_P1;HPM_P2
2023/11/01 00:01:05;;;;;;;0.93;0.20;;;;;;;8.44;100.00;100511.75;5084260;28;20035;-69
2023/11/01 00:03:31;;;;;;;3.15;0.28;;;;;;;8.51;100.00;100521.47;5085112;28;20154;-69
2023/11/01 00:05:57;;;;;;;1.88;0.20;;;;;;;8.42;100.00;100524.03;5083019;28;20052;-69
2023/11/01 00:08:22;;;;;;;0.93;0.20;;;;;;;8.26;100.00;100522.69;5091400;28;20409;-69
2023/11/01 00:10:48;;;;;;;0.80;0.20;;;;;;;8.18;100.00;100519.91;5087524;28;20160;-69
2023/11/01 00:13:13;;;;;;;1.17;0.20;;;;;;;8.06;100.00;100525.28;5084023;28;20036;-69
2023/11/01 00:15:39;;;;;;;0.63;0.20;;;;;;;8.03;100.00;100530.75;5085680;28;20035;-69
2023/11/01 00:18:05;;;;;;;2.90;0.20;;;;;;;8.12;100.00;100538.59;5085899;28;20473;-68
2023/11/01 00:20:30;;;;;;;0.73;0.10;;;;;;;8.22;100.00;100549.84;5083184;28;20526;-68
2023/11/01 00:22:56;;;;;;;0.60;0.20;;;;;;;8.07;100.00;100540.72;5084329;28;20493;-69
2023/11/01 00:25:21;;;;;;;0.45;0.10;;;;;;;7.93;100.00;100534.09;5085888;28;20032;-69
2023/11/01 00:27:46;;;;;;;0.32;0.10;;;;;;;7.93;100.00;100538.47;5086386;28;20031;-69
2023/11/01 00:30:12;;;;;;;0.52;0.10;;;;;;;7.98;100.00;100544.09;5088009;28;20032;-69
2023/11/01 00:32:39;;;;;;;0.10;0.00;;;;;;;8.12;100.00;100548.97;5081296;28;20078;-69
2023/11/01 00:35:05;;;;;;;1.08;0.00;;;;;;;8.26;100.00;100540.03;5085625;28;20032;-69
2023/11/01 00:37:31;;;;;;;0.17;0.00;;;;;;;8.39;100.00;100540.69;5087617;28;20040;-69
2023/11/01 00:39:56;;;;;;;0.00;0.00;;;;;;;8.41;100.00;100544.00;5087934;28;20481;-69
2023/11/01 00:42:21;;;;;;;0.20;0.00;;;;;;;8.54;100.00;100543.75;5087860;28;20568;-69
2023/11/01 00:44:47;;;;;;;0.00;0.00;;;;;;;8.60;100.00;100531.09;5089079;28;20028;-69
2023/11/01 00:47:12;;;;;;;0.13;0.00;;;;;;;8.64;100.00;100534.25;5087812;28;20032;-71
2023/11/01 00:49:38;;;;;;;0.10;0.10;;;;;;;8.62;100.00;100543.94;5089330;28;20153;-69
2023/11/01 00:52:04;;;;;;;0.50;0.08;;;;;;;8.60;100.00;100551.03;5088875;28;20032;-70
2023/11/01 00:54:29;;;;;;;0.10;0.00;;;;;;;8.60;100.00;100546.66;5083998;28;20072;-69
2023/11/01 00:56:55;;;;;;;0.22;0.00;;;;;;;8.63;100.00;100545.59;5087315;28;20377;-69
2023/11/01 00:59:20;;;;;;;0.30;0.13;;;;;;;8.67;100.00;100549.56;5085982;28;20024;-69
2023/11/01 01:01:45;;;;;;;0.00;0.00;;;;;;;8.69;100.00;100550.25;5085416;28;20028;-69
2023/11/01 01:04:11;;;;;;;0.20;0.00;;;;;;;8.70;100.00;100545.88;5088437;28;20488;-69
2023/11/01 01:06:36;;;;;;;0.10;0.00;;;;;;;8.73;100.00;100550.81;5087761;28;20097;-68
2023/11/01 01:09:02;;;;;;;1.58;0.08;;;;;;;8.59;100.00;100554.59;5089363;28;20036;-69
2023/11/01 01:11:27;;;;;;;1.92;0.10;;;;;;;8.46;100.00;100564.38;5083410;28;20485;-69
2023/11/01 01:13:52;;;;;;;0.10;0.00;;;;;;;8.30;100.00;100550.03;5086593;28;20028;-69
2023/11/01 01:16:18;;;;;;;0.75;0.10;;;;;;;8.28;100.00;100546.75;5083546;28;20112;-68
2023/11/01 01:18:44;;;;;;;0.20;0.08;;;;;;;8.23;100.00;100541.13;5089298;28;20028;-69
2023/11/01 01:21:09;;;;;;;0.75;0.00;;;;;;;8.16;100.00;100532.19;5082257;28;20027;-68
2023/11/01 01:23:34;;;;;;;0.60;0.10;;;;;;;8.33;100.00;100528.22;5078466;28;20375;-69
2023/11/01 01:26:00;;;;;;;0.73;0.00;;;;;;;8.51;100.00;100531.03;5080240;28;20763;-68
2023/11/01 01:28:25;;;;;;;0.52;0.05;;;;;;;8.60;100.00;100540.66;5084814;28;20040;-69
2023/11/01 01:30:51;;;;;;;0.32;0.00;;;;;;;8.68;100.00;100535.63;5086672;28;20043;-69
2023/11/01 01:33:16;;;;;;;0.00;0.00;;;;;;;8.72;100.00;100531.00;5083465;28;20047;-68
2023/11/01 01:35:41;;;;;;;0.32;0.00;;;;;;;8.71;100.00;100524.16;5083561;28;20501;-69
2023/11/01 01:38:07;;;;;;;0.77;0.00;;;;;;;8.73;100.00;100517.88;5086144;28;20432;-69
2023/11/01 01:40:34;;;;;;;0.00;0.00;;;;;;;8.74;100.00;100510.91;5088590;28;20040;-69
2023/11/01 01:43:19;;;;;;;0.10;0.10;;;;;;;8.72;100.00;100510.22;5082010;28;20071;-69
2023/11/01 01:45:58;;;;;;;0.00;0.00;;;;;;;8.72;100.00;100511.03;5084113;28;20089;-69
2023/11/01 01:48:24;;;;;;;2.35;0.00;;;;;;;8.62;100.00;100511.00;5083893;28;20469;-69
2023/11/01 01:50:49;;;;;;;0.17;0.00;;;;;;;8.56;100.00;100510.69;5084488;28;20035;-69
2023/11/01 01:53:15;;;;;;;0.40;0.00;;;;;;;8.52;100.00;100501.50;5088034;28;20101;-69
2023/11/01 01:55:42;;;;;;;0.10;0.00;;;;;;;8.50;100.00;100514.66;5079934;28;20503;-69
2023/11/01 01:58:09;;;;;;;0.00;0.00;;;;;;;8.53;100.00;100514.38;5083458;28;20528;-69
2023/11/01 02:00:34;;;;;;;0.10;0.00;;;;;;;8.60;100.00;100505.13;5085397;28;20044;-69
2023/11/01 02:03:00;;;;;;;0.00;0.00;;;;;;;8.68;100.00;100498.44;5086187;28;20495;-70
2023/11/01 02:05:27;;;;;;;0.00;0.00;;;;;;;8.74;100.00;100501.34;5083206;28;20039;-70
2023/11/01 02:07:52;;;;;;;0.08;0.00;;;;;;;8.78;100.00;100497.53;5086039;28;20054;-70
2023/11/01 02:10:18;;;;;;;0.00;0.00;;;;;;;8.79;100.00;100508.75;5074678;28;20116;-70
2023/11/01 02:12:43;;;;;;;0.63;0.10;;;;;;;8.77;100.00;100516.66;5089614;28;20048;-70
2023/11/01 02:15:09;;;;;;;1.65;0.10;;;;;;;8.60;100.00;100525.06;5082617;28;20085;-69
2023/11/01 02:17:34;;;;;;;1.95;0.05;;;;;;;8.40;100.00;100518.97;5080618;28;20063;-69
2023/11/01 02:20:03;;;;;;;0.20;0.10;;;;;;;8.31;100.00;100517.13;5084444;28;20024;-69
2023/11/01 02:22:29;;;;;;;0.30;0.00;;;;;;;8.19;100.00;100525.94;5079349;28;20024;-69
2023/11/01 02:24:55;;;;;;;0.20;0.00;;;;;;;8.11;100.00;100518.78;5078685;28;20098;-69
2023/11/01 02:27:20;;;;;;;0.10;0.00;;;;;;;8.15;100.00;100511.56;5080328;28;20033;-70
2023/11/01 02:29:46;;;;;;;0.03;0.00;;;;;;;8.25;100.00;100500.28;5083156;28;20040;-69
2023/11/01 02:32:11;;;;;;;0.57;0.10;;;;;;;8.39;100.00;100503.53;5090261;28;20078;-69
2023/11/01 02:34:37;;;;;;;0.30;0.10;;;;;;;8.39;100.00;100501.75;5089606;28;20362;-69
2023/11/01 02:37:03;;;;;;;0.52;0.10;;;;;;;8.30;100.00;100508.50;5083098;28;20592;-69
2023/11/01 02:39:29;;;;;;;1.30;0.32;;;;;;;8.20;100.00;100507.63;5089064;28;20404;-69
2023/11/01 02:41:55;;;;;;;0.45;0.10;;;;;;;8.20;100.00;100507.63;5087267;28;20043;-69
2023/11/01 02:44:20;;;;;;;0.40;0.10;;;;;;;8.16;100.00;100518.38;5093031;28;20409;-69
2023/11/01 02:46:46;;;;;;;0.30;0.10;;;;;;;8.08;100.00;100519.03;5083215;28;20044;-69
2023/11/01 02:49:11;;;;;;;0.60;0.10;;;;;;;8.01;100.00;100523.09;5085390;28;20488;-70
2023/11/01 02:51:37;;;;;;;0.30;0.00;;;;;;;7.94;100.00;100520.19;5084527;28;20028;-69
2023/11/01 02:54:03;;;;;;;0.20;0.00;;;;;;;8.04;100.00;100522.81;5093082;28;20465;-67
2023/11/01 02:56:28;;;;;;;0.10;0.00;;;;;;;8.23;100.00;100522.94;5087519;28;20036;-66
2023/11/01 02:58:54;;;;;;;0.25;0.00;;;;;;;8.38;100.00;100520.06;5083151;28;20362;-66
2023/11/01 03:01:21;;;;;;;0.30;0.00;;;;;;;8.46;100.00;100512.44;5090797;28;20047;-68
2023/11/01 03:03:48;;;;;;;0.00;0.00;;;;;;;8.53;100.00;100511.78;5096967;28;20086;-69
2023/11/01 03:06:14;;;;;;;0.30;0.10;;;;;;;8.61;100.00;100518.91;5087321;28;20040;-69
2023/11/01 03:08:39;;;;;;;0.10;0.00;;;;;;;8.70;100.00;100520.75;5072439;28;20417;-69
2023/11/01 03:11:04;;;;;;;0.47;0.00;;;;;;;8.76;100.00;100512.44;5084831;28;20039;-70
2023/11/01 03:13:30;;;;;;;0.08;0.00;;;;;;;8.81;100.00;100502.47;5087445;28;20046;-70
2023/11/01 03:15:55;;;;;;;0.03;0.00;;;;;;;8.80;100.00;100495.63;5080326;28;20556;-70
2023/11/01 03:18:21;;;;;;;0.00;0.00;;;;;;;8.83;100.00;100492.75;5075350;28;20040;-70
2023/11/01 03:20:46;;;;;;;0.00;0.00;;;;;;;8.93;100.00;100504.00;5088175;28;20103;-70
2023/11/01 03:23:11;;;;;;;0.68;0.00;;;;;;;9.01;100.00;100507.69;5083766;28;20032;-68
2023/11/01 03:25:37;;;;;;;0.13;0.00;;;;;;;9.01;100.00;100507.69;5083516;28;20105;-69
2023/11/01 03:28:02;;;;;;;0.22;0.00;;;;;;;8.95;100.00;100503.88;5085533;28;20031;-68
2023/11/01 03:30:28;;;;;;;0.50;0.00;;;;;;;8.88;100.00;100513.97;5086961;28;20047;-70
2023/11/01 03:32:53;;;;;;;0.60;0.00;;;;;;;8.81;100.00;100520.66;5086392;28;20043;-70
2023/11/01 03:35:18;;;;;;;0.10;0.00;;;;;;;8.78;100.00;100523.50;5088088;28;20032;-69
2023/11/01 03:37:44;;;;;;;0.00;0.00;;;;;;;8.67;100.00;100515.81;5087881;28;20185;-70
2023/11/01 03:40:09;;;;;;;0.40;0.00;;;;;;;8.63;100.00;100517.00;5085328;28;20481;-69
2023/11/01 03:42:35;;;;;;;0.10;0.00;;;;;;;8.57;100.00;100505.38;5081524;28;20043;-70
2023/11/01 03:45:00;;;;;;;0.00;0.00;;;;;;;8.52;100.00;100504.13;5077376;28;20032;-69
2023/11/01 03:47:26;;;;;;;0.20;0.00;;;;;;;8.53;100.00;100505.75;5085678;28;20027;-70
2023/11/01 03:49:52;;;;;;;0.00;0.00;;;;;;;8.54;100.00;100515.19;5084061;28;20031;-69
2023/11/01 03:52:17;;;;;;;0.10;0.00;;;;;;;8.54;100.00;100508.22;5085864;28;20481;-71
2023/11/01 03:54:42;;;;;;;0.20;0.00;;;;;;;8.57;100.00;100509.75;5084987;28;20173;-69
2023/11/01 03:57:08;;;;;;;0.00;0.00;;;;;;;8.58;100.00;100520.00;5088449;28;20149;-69
2023/11/01 03:59:33;;;;;;;0.15;0.03;;;;;;;8.59;100.00;100515.63;5086780;28;20039;-69
2023/11/01 04:01:59;;;;;;;0.00;0.00;;;;;;;8.68;100.00;100522.63;5093870;28;20640;-68
2023/11/01 04:04:25;;;;;;;0.35;0.00;;;;;;;8.63;100.00;100525.63;5084828;28;20024;-69
2023/11/01 04:06:51;;;;;;;0.40;0.05;;;;;;;8.53;100.00;100523.94;5089233;28;20024;-69
2023/11/01 04:09:17;;;;;;;0.20;0.00;;;;;;;8.36;100.00;100509.81;5081014;28;20059;-69
2023/11/01 04:11:42;;;;;;;0.20;0.00;;;;;;;8.37;100.00;100515.81;5080206;28;20545;-69
2023/11/01 04:14:08;;;;;;;0.25;0.08;;;;;;;8.47;100.00;100514.09;5087901;28;20141;-69
2023/11/01 04:16:34;;;;;;;0.20;0.00;;;;;;;8.56;100.00;100506.31;5082770;28;20020;-69
2023/11/01 04:18:59;;;;;;;3.33;0.10;;;;;;;8.70;100.00;100501.72;5088206;28;20051;-69
2023/11/01 04:21:25;;;;;;;0.45;0.05;;;;;;;8.88;100.00;100502.75;5088634;28;20428;-69
2023/11/01 04:23:52;;;;;;;0.20;0.00;;;;;;;8.92;100.00;100498.94;5077480;28;20028;-70
2023/11/01 04:26:18;;;;;;;0.00;0.00;;;;;;;8.92;100.00;100494.56;5087144;28;20035;-69
2023/11/01 04:28:44;;;;;;;0.63;0.10;;;;;;;8.91;100.00;100492.94;5078557;27;20072;-69
2023/11/01 04:31:09;;;;;;;0.10;0.00;;;;;;;8.90;100.00;100490.47;5082574;28;20055;-70
2023/11/01 04:33:35;;;;;;;3.35;0.20;;;;;;;8.87;100.00;100483.75;5092036;28;20050;-69
2023/11/01 04:36:01;;;;;;;0.10;0.00;;;;;;;8.87;100.00;100480.31;5087438;28;20060;-69
2023/11/01 04:38:26;;;;;;;0.25;0.00;;;;;;;8.88;100.00;100466.38;5086946;28;20050;-69
2023/11/01 04:40:53;;;;;;;0.45;0.00;;;;;;;8.89;100.00;100474.03;5084261;28;20395;-69
2023/11/01 04:43:19;;;;;;;0.32;0.00;;;;;;;8.93;100.00;100475.41;5089124;28;20111;-69
2023/11/01 04:45:47;;;;;;;0.22;0.00;;;;;;;9.01;100.00;100479.09;5089463;28;20122;-70
2023/11/01 04:48:13;;;;;;;0.03;0.00;;;;;;;9.06;100.00;100480.34;5085220;28;20028;-69
2023/11/01 04:50:38;;;;;;;0.10;0.00;;;;;;;9.11;100.00;100474.75;5085018;28;20020;-70
2023/11/01 04:53:04;;;;;;;0.08;0.00;;;;;;;9.16;100.00;100463.00;5083979;28;20102;-68
2023/11/01 04:55:29;;;;;;;0.17;0.00;;;;;;;9.21;100.00;100460.00;5084106;28;20032;-69
2023/11/01 04:57:55;;;;;;;0.10;0.00;;;;;;;9.20;100.00;100466.97;5085562;28;20469;-69
2023/11/01 05:00:20;;;;;;;0.10;0.00;;;;;;;9.06;100.00;100462.16;5076813;28;20107;-69
2023/11/01 05:02:46;;;;;;;0.10;0.00;;;;;;;8.94;100.00;100464.06;5083464;28;20068;-68
2023/11/01 05:05:12;;;;;;;0.10;0.00;;;;;;;8.84;100.00;100459.81;5085673;28;20032;-69
2023/11/01 05:07:41;;;;;;;0.10;0.00;;;;;;;8.83;100.00;100466.78;5087669;28;20464;-70
2023/11/01 05:10:07;;;;;;;0.05;0.00;;;;;;;8.83;100.00;100469.38;5087056;28;20050;-69
2023/11/01 05:12:33;;;;;;;0.63;0.00;;;;;;;8.82;100.00;100472.94;5080381;28;20032;-70
2023/11/01 05:14:59;;;;;;;0.00;0.00;;;;;;;8.79;100.00;100473.19;5078257;28;20032;-70
2023/11/01 05:17:25;;;;;;;0.17;0.00;;;;;;;8.85;100.00;100480.47;5088327;28;20075;-69
2023/11/01 05:19:50;;;;;;;0.00;0.00;;;;;;;8.93;100.00;100485.81;5086665;28;20032;-69
2023/11/01 05:22:19;;;;;;;0.00;0.00;;;;;;;8.97;100.00;100484.59;5088343;28;20092;-69
2023/11/01 05:24:49;;;;;;;0.03;0.00;;;;;;;8.99;100.00;100490.44;5085938;28;20047;-68
2023/11/01 05:27:15;;;;;;;0.93;0.00;;;;;;;8.98;100.00;100499.19;5087473;28;20028;-70
2023/11/01 05:29:40;;;;;;;0.10;0.00;;;;;;;9.05;100.00;100503.88;5084535;28;20032;-69
2023/11/01 05:32:06;;;;;;;0.00;0.00;;;;;;;9.10;100.00;100509.50;5081586;28;20473;-69
2023/11/01 05:34:32;;;;;;;0.55;0.10;;;;;;;9.17;100.00;100506.22;5086247;28;20035;-69
2023/11/01 05:36:57;;;;;;;0.08;0.00;;;;;;;9.24;100.00;100509.94;5087005;28;20032;-69
2023/11/01 05:39:22;;;;;;;0.00;0.00;;;;;;;9.30;100.00;100517.19;5085881;28;20052;-69
2023/11/01 05:41:51;;;;;;;1.25;0.00;;;;;;;9.34;100.00;100514.34;5086961;28;20115;-69
2023/11/01 05:44:19;;;;;;;0.10;0.00;;;;;;;9.32;100.00;100517.06;5086254;28;20485;-71
2023/11/01 05:46:45;;;;;;;0.05;0.00;;;;;;;9.27;100.00;100519.25;5085371;28;20481;-70
2023/11/01 05:49:11;;;;;;;0.68;0.00;;;;;;;9.18;100.00;100520.03;5091449;28;20028;-69
2023/11/01 05:51:36;;;;;;;0.30;0.00;;;;;;;9.15;100.00;100520.31;5085340;28;20077;-69
2023/11/01 05:54:01;;;;;;;0.25;0.00;;;;;;;9.16;100.00;100511.56;5081760;28;20036;-69
2023/11/01 05:56:27;;;;;;;0.00;0.00;;;;;;;9.17;100.00;100518.41;5085496;28;20152;-69
2023/11/01 05:58:55;;;;;;;0.30;0.00;;;;;;;9.20;100.00;100523.34;5088948;28;20130;-69
2023/11/01 06:01:23;;;;;;;4.05;0.00;;;;;;;9.20;100.00;100520.75;5081800;28;20031;-71
2023/11/01 06:03:50;;;;;;;0.00;0.00;;;;;;;9.21;100.00;100524.97;5090134;28;20461;-70
2023/11/01 06:06:18;;;;;;;0.05;0.00;;;;;;;9.26;100.00;100528.00;5089243;28;20126;-69
2023/11/01 06:08:44;;;;;;;1.33;0.00;;;;;;;9.28;100.00;100532.09;5091883;28;20032;-69
2023/11/01 06:11:09;;;;;;;2.97;0.00;;;;;;;9.29;100.00;100532.94;5092093;28;20048;-69
2023/11/01 06:13:34;;;;;;;0.10;0.00;;;;;;;9.29;100.00;100522.53;5093643;28;20024;-69
2023/11/01 06:16:04;;;;;;;0.13;0.00;;;;;;;9.34;100.00;100520.34;5084084;28;20397;-69
2023/11/01 06:18:33;;;;;;;0.65;0.00;;;;;;;9.40;100.00;100519.81;5089552;28;20123;-69
2023/11/01 06:20:59;;;;;;;0.00;0.00;;;;;;;9.43;100.00;100529.94;5089863;28;20028;-69
2023/11/01 06:23:24;;;;;;;1.75;0.00;;;;;;;9.48;100.00;100517.34;5086852;28;20080;-70
2023/11/01 06:25:50;;;;;;;0.00;0.00;;;;;;;9.52;100.00;100523.91;5083486;28;20036;-70
2023/11/01 06:28:15;;;;;;;0.03;0.00;;;;;;;9.52;100.00;100523.09;5089322;28;20166;-70
2023/11/01 06:30:41;;;;;;;0.55;0.00;;;;;;;9.55;100.00;100535.81;5087905;28;20024;-69
2023/11/01 06:33:07;;;;;;;0.10;0.00;;;;;;;9.61;100.00;100537.88;5091724;28;20031;-68
2023/11/01 06:35:32;;;;;;;0.17;0.00;;;;;;;9.68;100.00;100538.16;5087685;28;20036;-69
2023/11/01 06:37:58;;;;;;;0.00;0.00;;;;;;;9.69;100.00;100547.59;5085796;28;20431;-69
2023/11/01 06:40:23;;;;;;;0.20;0.00;;;;;;;9.74;100.00;100548.03;5087623;28;20024;-69
2023/11/01 06:42:49;;;;;;;0.10;0.00;;;;;;;9.69;100.00;100556.22;5079692;28;20520;-70
2023/11/01 06:45:14;;;;;;;1.98;0.00;;;;;;;9.70;100.00;100563.09;5083425;28;20484;-69
2023/11/01 06:47:40;;;;;;;0.00;0.00;;;;;;;9.76;100.00;100565.13;5090590;28;20459;-70
2023/11/01 06:50:06;;;;;;;0.00;0.00;;;;;;;9.82;100.00;100579.38;5081512;28;20489;-70
2023/11/01 06:52:31;;;;;;;0.10;0.00;;;;;;;9.85;100.00;100584.31;5087798;28;20039;-74
2023/11/01 06:54:57;;;;;;;0.00;0.00;;;;;;;9.85;100.00;100576.50;5093887;28;20032;-71
2023/11/01 06:57:23;;;;;;;0.10;0.00;;;;;;;9.86;100.00;100580.75;5081083;28;20047;-72
2023/11/01 06:59:48;;;;;;;0.65;0.00;;;;;;;9.84;100.00;100580.06;5089948;28;20111;-70
2023/11/01 07:02:13;;;;;;;0.88;0.00;;;;;;;9.78;100.00;100575.41;5084590;28;20043;-71
2023/11/01 07:04:39;;;;;;;0.22;0.00;;;;;;;9.78;100.00;100583.22;5091659;28;20118;-71
2023/11/01 07:07:04;;;;;;;0.00;0.00;;;;;;;9.84;100.00;100577.47;5086269;28;20077;-71
2023/11/01 07:09:29;;;;;;;0.00;0.00;;;;;;;9.88;100.00;100578.84;5084316;28;20511;-71
2023/11/01 07:11:55;;;;;;;0.10;0.00;;;;;;;9.93;100.00;100577.44;5090136;28;20039;-70
2023/11/01 07:14:20;;;;;;;0.00;0.00;;;;;;;10.00;100.00;100580.31;5082543;28;20032;-69
2023/11/01 07:16:46;;;;;;;0.10;0.00;;;;;;;10.12;100.00;100576.63;5083216;28;20414;-70
2023/11/01 07:19:15;;;;;;;0.20;0.00;;;;;;;10.29;100.00;100581.16;5087502;28;20032;-70
2023/11/01 07:21:41;;;;;;;0.70;0.00;;;;;;;10.51;100.00;100576.56;5080914;28;20467;-70
2023/11/01 07:24:09;;;;;;;0.08;0.00;;;;;;;10.65;100.00;100581.34;5086989;28;20122;-70
2023/11/01 07:26:35;;;;;;;0.00;0.00;;;;;;;10.75;100.00;100571.72;5089019;28;20035;-70
2023/11/01 07:29:01;;;;;;;0.60;0.00;;;;;;;10.75;100.00;100571.72;5086333;28;20085;-72
2023/11/01 07:31:26;;;;;;;0.15;0.00;;;;;;;10.68;100.00;100575.84;5084576;28;20118;-69
2023/11/01 07:33:53;;;;;;;0.00;0.00;;;;;;;10.65;100.00;100578.72;5085927;28;20031;-70
2023/11/01 07:36:19;;;;;;;0.00;0.00;;;;;;;10.71;100.00;100579.94;5086206;28;20032;-70
2023/11/01 07:38:45;;;;;;;0.30;0.00;;;;;;;10.74;100.00;100580.50;5087760;28;20131;-71
2023/11/01 07:41:11;;;;;;;0.10;0.00;;;;;;;10.80;100.00;100586.91;5079584;28;20127;-71
2023/11/01 07:43:39;;;;;;;0.10;0.00;;;;;;;10.80;100.00;100579.91;5088223;27;20025;-70
2023/11/01 07:46:04;;;;;;;0.10;0.00;;;;;;;10.79;100.00;100588.69;5086835;28;20032;-70
2023/11/01 07:48:30;;;;;;;1.55;0.00;;;;;;;10.77;100.00;100588.03;5086792;28;20516;-72
2023/11/01 07:50:55;;;;;;;0.10;0.00;;;;;;;10.77;100.00;100587.19;5085791;28;20111;-70
2023/11/01 07:53:20;;;;;;;0.30;0.00;;;;;;;10.81;100.00;100592.00;5082914;28;20024;-70
2023/11/01 07:55:47;;;;;;;0.10;0.00;;;;;;;10.86;100.00;100587.16;5092675;28;20408;-71
2023/11/01 07:58:13;;;;;;;0.10;0.00;;;;;;;10.85;100.00;100587.31;5088325;28;20427;-70
2023/11/01 08:00:38;;;;;;;0.82;0.00;;;;;;;10.89;100.00;100592.06;5088238;28;20086;-70
2023/11/01 08:03:04;;;;;;;1.55;0.00;;;;;;;10.95;100.00;100588.06;5070377;28;20093;-71
2023/11/01 08:05:29;;;;;;;0.52;0.03;;;;;;;11.05;100.00;100588.03;5074133;28;20040;-71
2023/11/01 08:07:55;;;;;;;0.40;0.00;;;;;;;11.09;100.00;100589.38;5089522;28;20023;-69
2023/11/01 08:10:21;;;;;;;0.00;0.00;;;;;;;11.13;100.00;100585.53;5087278;28;20024;-69
2023/11/01 08:12:46;;;;;;;1.48;0.00;;;;;;;11.13;99.96;100580.31;5079960;28;20032;-70
2023/11/01 08:15:12;;;;;;;0.03;0.00;;;;;;;11.15;100.00;100574.00;5075360;28;20097;-70
2023/11/01 08:17:38;;;;;;;0.88;0.00;;;;;;;11.22;100.00;100574.22;5068475;28;20036;-70
2023/11/01 08:20:04;;;;;;;0.05;0.00;;;;;;;11.35;100.00;100581.69;5083150;28;20036;-71
2023/11/01 08:22:30;;;;;;;0.03;0.00;;;;;;;11.42;99.98;100575.72;5070765;28;20452;-71
2023/11/01 08:24:55;;;;;;;0.05;0.00;;;;;;;11.46;99.77;100565.81;5077944;28;20043;-72
2023/11/01 08:27:20;;;;;;;0.75;0.00;;;;;;;11.51;99.45;100564.41;5076854;28;20477;-70
2023/11/01 08:29:46;;;;;;;0.85;0.00;;;;;;;11.60;99.87;100562.72;5074869;28;20032;-70
2023/11/01 08:32:11;;;;;;;0.10;0.00;;;;;;;11.66;97.74;100566.53;5083445;28;20131;-71
2023/11/01 08:34:37;;;;;;;0.85;0.00;;;;;;;11.76;99.61;100572.50;5084973;28;20122;-69
2023/11/01 08:37:04;;;;;;;0.22;0.05;;;;;;;11.83;98.33;100569.13;5077652;28;20032;-70
2023/11/01 08:39:30;;;;;;;0.65;0.00;;;;;;;11.90;98.12;100564.97;5067054;28;20037;-71
2023/11/01 08:41:56;;;;;;;0.35;0.00;;;;;;;12.01;98.85;100569.13;5069569;28;20085;-70
2023/11/01 08:44:21;;;;;;;0.40;0.00;;;;;;;12.00;98.53;100570.09;5069281;28;20035;-69
2023/11/01 08:46:47;;;;;;;0.47;0.00;;;;;;;12.02;99.31;100562.94;5068208;28;20628;-70
2023/11/01 08:49:13;;;;;;;1.65;0.00;;;;;;;12.06;97.75;100566.88;5069867;28;20112;-70
2023/11/01 08:51:39;;;;;;;0.38;0.00;;;;;;;12.08;95.78;100571.97;5081671;28;20058;-69
2023/11/01 08:54:06;;;;;;;0.05;0.00;;;;;;;12.03;97.75;100566.38;5071073;28;20044;-69
2023/11/01 08:56:31;;;;;;;0.00;0.00;;;;;;;11.99;97.95;100568.47;5071649;28;20035;-70
2023/11/01 08:58:57;;;;;;;2.28;0.00;;;;;;;12.03;98.28;100572.41;5080198;28;20024;-69
2023/11/01 09:01:24;;;;;;;0.30;0.00;;;;;;;12.11;99.09;100567.25;5079492;28;20043;-70
2023/11/01 09:03:49;;;;;;;0.30;0.00;;;;;;;12.17;96.76;100566.66;5080842;28;20028;-71
2023/11/01 09:06:15;;;;;;;0.20;0.00;;;;;;;12.17;97.03;100561.44;5083897;28;20137;-71
2023/11/01 09:08:40;;;;;;;0.10;0.00;;;;;;;12.24;98.50;100567.69;5090295;28;20391;-71
2023/11/01 09:11:05;;;;;;;0.00;0.00;;;;;;;12.36;98.27;100570.84;5077311;28;20504;-71
2023/11/01 09:13:31;;;;;;;0.15;0.00;;;;;;;12.40;96.92;100563.53;5090190;28;20028;-71
2023/11/01 09:15:56;;;;;;;0.30;0.00;;;;;;;12.46;97.46;100557.69;5077421;28;20033;-73
2023/11/01 09:18:22;;;;;;;0.10;0.00;;;;;;;12.57;97.24;100563.47;5085729;28;20029;-73
2023/11/01 09:20:48;;;;;;;0.10;0.00;;;;;;;12.65;97.53;100560.09;5077454;28;20595;-74
2023/11/01 09:23:14;;;;;;;0.10;0.00;;;;;;;12.69;95.92;100565.84;5082954;28;20032;-76
2023/11/01 09:25:39;;;;;;;0.40;0.00;;;;;;;12.81;96.37;100562.75;5073301;28;20051;-76
2023/11/01 09:28:05;;;;;;;0.25;0.00;;;;;;;12.86;97.03;100565.72;5082453;28;20028;-72
2023/11/01 09:30:30;;;;;;;0.00;0.00;;;;;;;12.94;96.21;100564.94;5079048;28;20482;-71
2023/11/01 09:32:56;;;;;;;1.60;0.00;;;;;;;12.96;94.79;100558.59;5078597;28;20063;-73
2023/11/01 09:35:21;;;;;;;0.05;0.00;;;;;;;12.97;95.78;100559.41;5085582;28;20124;-72
2023/11/01 09:37:47;;;;;;;0.55;0.00;;;;;;;12.91;96.58;100558.25;5079899;28;20043;-72
2023/11/01 09:40:12;;;;;;;0.10;0.00;;;;;;;13.02;95.43;100559.75;5084063;28;20075;-71
2023/11/01 09:42:38;;;;;;;0.25;0.05;;;;;;;13.18;96.28;100556.41;5080278;28;20032;-71
2023/11/01 09:45:09;;;;;;;1.77;0.00;;;;;;;13.28;97.40;100557.91;5072000;28;20041;-71
2023/11/01 09:47:36;;;;;;;0.57;0.08;;;;;;;13.40;94.15;100555.81;5071029;28;20039;-72
2023/11/01 09:50:02;;;;;;;0.43;0.05;;;;;;;13.49;94.26;100554.84;5087516;28;20022;-71
2023/11/01 09:52:28;;;;;;;0.57;0.00;;;;;;;13.53;91.89;100557.97;5083057;28;20404;-72
2023/11/01 09:54:54;;;;;;;0.10;0.00;;;;;;;13.55;94.07;100556.81;5078830;28;20108;-71
2023/11/01 09:57:24;;;;;;;0.75;0.00;;;;;;;13.61;95.39;100552.75;5068869;28;20877;-71
2023/11/01 09:59:49;;;;;;;0.45;0.28;;;;;;;13.65;95.08;100553.22;5072000;28;20385;-71
2023/11/01 10:02:16;;;;;;;0.08;0.00;;;;;;;13.67;91.71;100554.72;5076465;28;20029;-72
2023/11/01 10:04:42;;;;;;;0.30;0.03;;;;;;;13.77;94.77;100549.28;5078542;28;20055;-71
2023/11/01 10:07:09;;;;;;;0.10;0.00;;;;;;;13.97;94.38;100542.75;5065991;28;20079;-72
2023/11/01 10:09:39;;;;;;;0.93;0.00;;;;;;;14.07;93.55;100535.56;5081204;28;20055;-72
2023/11/01 10:12:07;;;;;;;1.73;0.10;;;;;;;14.08;91.85;100545.03;5081744;28;20165;-71
2023/11/01 10:14:35;;;;;;;0.93;0.10;;;;;;;14.17;93.63;100535.38;5077507;28;20056;-72
2023/11/01 10:17:01;;;;;;;0.35;0.03;;;;;;;14.19;95.54;100539.44;5082231;28;20388;-72
2023/11/01 10:19:27;;;;;;;0.55;0.00;;;;;;;14.20;94.16;100532.41;5075458;28;20016;-72
2023/11/01 10:21:54;;;;;;;0.17;0.00;;;;;;;14.19;94.82;100531.59;5080725;28;20094;-71
2023/11/01 10:24:25;;;;;;;1.38;0.00;;;;;;;14.13;91.79;100532.28;5078485;28;20506;-72
2023/11/01 10:26:52;;;;;;;0.35;0.00;;;;;;;14.09;92.72;100522.28;5078339;28;20401;-72
2023/11/01 10:29:18;;;;;;;0.32;0.00;;;;;;;14.02;94.39;100537.03;5075266;28;20024;-72
2023/11/01 10:32:00;;;;;;;1.50;0.00;;;;;;;13.95;94.09;100536.88;5084983;28;20040;-72
2023/11/01 10:34:30;;;;;;;0.00;0.00;;;;;;;14.01;94.51;100528.34;5071616;28;20033;-72
2023/11/01 10:36:58;;;;;;;0.28;0.03;;;;;;;14.02;94.66;100530.00;5080530;28;20646;-72
2023/11/01 10:39:24;;;;;;;0.40;0.00;;;;;;;13.95;93.33;100521.16;5072098;28;20052;-72
2023/11/01 10:41:53;;;;;;;0.20;0.00;;;;;;;13.93;94.61;100520.50;5076138;28;20048;-71
2023/11/01 10:44:20;;;;;;;0.63;0.00;;;;;;;13.91;92.49;100514.59;5073388;28;20033;-71
2023/11/01 10:46:48;;;;;;;0.73;0.00;;;;;;;13.99;94.37;100517.22;5078697;28;20119;-73
2023/11/01 10:49:14;;;;;;;0.10;0.00;;;;;;;14.03;94.77;100499.38;5084839;28;20022;-71
2023/11/01 10:51:41;;;;;;;0.63;0.10;;;;;;;13.98;94.50;100497.25;5083762;28;20046;-70
2023/11/01 10:54:07;;;;;;;0.22;0.10;;;;;;;13.96;92.79;100496.59;5078280;28;20032;-71
2023/11/01 10:56:33;;;;;;;0.15;0.00;;;;;;;13.89;93.31;100487.75;5083743;28;20129;-70
2023/11/01 10:59:02;;;;;;;0.20;0.00;;;;;;;13.88;92.48;100481.69;5090657;28;20027;-70
2023/11/01 11:01:39;;;;;;;0.38;0.00;;;;;;;14.03;94.72;100476.63;5084595;28;20043;-70
2023/11/01 11:04:20;;;;;;;0.20;0.00;;;;;;;14.17;90.96;100478.56;5082945;28;20385;-70
2023/11/01 11:07:24;;;;;;;0.38;0.03;;;;;;;14.22;92.08;100473.59;5089664;28;20028;-70
2023/11/01 11:10:10;;;;;;;0.28;0.00;;;;;;;14.26;94.63;100464.41;5022110;28;20487;-70
2023/11/01 11:12:35;;;;;;;0.43;0.00;;;;;;;14.37;92.52;100471.13;5025795;28;20119;-72
2023/11/01 11:15:00;;;;;;;1.40;0.20;;;;;;;14.45;92.21;100463.25;5020175;28;20073;-71
2023/11/01 11:17:28;;;;;;;0.10;0.00;;;;;;;14.53;92.97;100462.41;5013498;28;20416;-74
2023/11/01 11:20:05;;;;;;;1.98;0.00;;;;;;;14.49;90.47;100463.72;5017824;28;20045;-71